Time;durP1;ratioP1;P1;durP2;ratioP2;P2;SDS_P1;SDS_P2;PMS_P1;PMS_P2;Temp;Humidity;BMP_temperature;BMP_pressure;BME280_temperature;BME280_humidity;BME280_pressure;Samples;Min_cycle;Max_cycle;Signal;HPM_P1;HPM_P2
2024/02/26 00:00:38;;;;;;;0.70;0.70;;;;;;;8.65;100.00;96675.19;4985139;28;20441;-53
2024/02/26 00:03:05;;;;;;;0.70;0.70;;;;;;;8.59;100.00;96657.34;4985380;28;20042;-65
2024/02/26 00:05:32;;;;;;;0.70;0.70;;;;;;;8.73;100.00;96686.03;4984866;28;20065;-53
2024/02/26 00:07:59;;;;;;;0.70;0.70;;;;;;;8.75;100.00;96671.84;4985247;28;20077;-55
2024/02/26 00:10:30;;;;;;;0.63;0.63;;;;;;;8.78;100.00;96694.00;4985226;28;20136;-53
2024/02/26 00:12:56;;;;;;;0.73;0.73;;;;;;;8.73;100.00;96674.16;4985249;28;20054;-52
2024/02/26 00:15:24;;;;;;;0.70;0.70;;;;;;;8.68;100.00;96666.19;4983704;28;20050;-63
2024/02/26 00:17:51;;;;;;;0.70;0.70;;;;;;;8.79;100.00;96667.16;4985164;28;20509;-65
2024/02/26 00:20:18;;;;;;;0.70;0.70;;;;;;;8.88;100.00;96664.97;4984939;28;20066;-52
2024/02/26 00:22:44;;;;;;;0.63;0.63;;;;;;;8.93;100.00;96667.44;4985002;28;20061;-53
2024/02/26 00:25:12;;;;;;;0.70;0.70;;;;;;;8.95;100.00;96651.28;4984235;28;20508;-52
2024/02/26 00:27:41;;;;;;;0.70;0.70;;;;;;;8.69;100.00;96615.34;4984771;28;20047;-64
2024/02/26 00:30:09;;;;;;;0.70;0.70;;;;;;;8.97;100.00;96658.03;4984318;28;20054;-52
2024/02/26 00:32:35;;;;;;;0.70;0.70;;;;;;;8.54;100.00;96583.94;4983253;28;20046;-64
2024/02/26 00:35:02;;;;;;;0.80;0.80;;;;;;;9.00;100.00;96659.25;4984312;28;20136;-64
2024/02/26 00:37:29;;;;;;;0.70;0.70;;;;;;;9.01;100.00;96653.34;4984232;28;20500;-52
2024/02/26 00:39:56;;;;;;;0.70;0.70;;;;;;;8.95;100.00;96656.81;4983886;28;20054;-52
2024/02/26 00:42:23;;;;;;;0.80;0.80;;;;;;;8.99;100.00;96644.63;4984228;28;20465;-63
2024/02/26 00:44:50;;;;;;;0.70;0.70;;;;;;;8.98;100.00;96647.78;4984556;28;20042;-64
2024/02/26 00:47:17;;;;;;;0.70;0.70;;;;;;;8.98;100.00;96647.78;4961826;28;20062;-64
2024/02/26 00:49:43;;;;;;;0.80;0.80;;;;;;;9.00;100.00;96653.72;4985059;28;20081;-64
2024/02/26 00:52:10;;;;;;;0.70;0.70;;;;;;;8.97;100.00;96651.72;4984033;28;20518;-53
2024/02/26 00:54:37;;;;;;;0.70;0.70;;;;;;;8.68;100.00;96606.25;4984224;28;20054;-65
2024/02/26 00:57:04;;;;;;;0.70;0.70;;;;;;;9.03;100.00;96650.22;4983929;28;20053;-65
2024/02/26 00:59:31;;;;;;;0.70;0.70;;;;;;;8.58;100.00;96567.44;4982609;28;20409;-64
2024/02/26 01:01:59;;;;;;;0.70;0.70;;;;;;;9.05;100.00;96632.13;4984092;28;20061;-65
2024/02/26 01:04:26;;;;;;;0.70;0.70;;;;;;;8.94;100.00;96630.34;4984157;28;20081;-53
2024/02/26 01:06:54;;;;;;;0.70;0.70;;;;;;;8.95;100.00;96629.97;4982035;28;20521;-53
2024/02/26 01:09:21;;;;;;;0.60;0.60;;;;;;;8.19;100.00;96524.53;4983992;28;20137;-52
2024/02/26 01:11:48;;;;;;;0.70;0.70;;;;;;;8.78;100.00;96613.94;4982566;28;20050;-52
2024/02/26 01:14:15;;;;;;;0.80;0.80;;;;;;;8.88;100.00;96626.31;4983815;28;20136;-64
2024/02/26 01:16:41;;;;;;;0.70;0.70;;;;;;;8.32;100.00;96525.97;4983946;28;20070;-53
2024/02/26 01:19:08;;;;;;;0.70;0.70;;;;;;;8.85;100.00;96621.53;4983721;28;20050;-65
2024/02/26 01:21:35;;;;;;;0.70;0.70;;;;;;;8.90;100.00;96629.47;4984162;28;20065;-64
2024/02/26 01:24:02;;;;;;;0.60;0.60;;;;;;;8.85;100.00;96632.59;4984506;28;20054;-64
2024/02/26 01:26:29;;;;;;;0.70;0.70;;;;;;;8.85;100.00;96632.59;4980235;28;20525;-64
2024/02/26 01:28:55;;;;;;;0.80;0.80;;;;;;;8.81;100.00;96643.56;4964463;28;20058;-52
2024/02/26 01:31:22;;;;;;;0.70;0.70;;;;;;;8.29;100.00;96598.44;4963989;28;20046;-64
2024/02/26 01:33:49;;;;;;;0.80;0.80;;;;;;;8.80;100.00;96630.13;4964501;28;20050;-65
2024/02/26 01:36:16;;;;;;;0.70;0.70;;;;;;;8.78;100.00;96630.50;4962861;28;20476;-52
2024/02/26 01:38:43;;;;;;;0.70;0.70;;;;;;;8.60;100.00;96598.22;4963747;28;20054;-65
2024/02/26 01:41:10;;;;;;;0.70;0.70;;;;;;;8.74;100.00;96643.41;4974848;28;20069;-65
2024/02/26 01:43:37;;;;;;;0.70;0.70;;;;;;;8.79;100.00;96600.91;4983492;28;20046;-63
2024/02/26 01:46:03;;;;;;;0.80;0.80;;;;;;;8.90;100.00;96623.97;4983432;28;20073;-65
2024/02/26 01:48:30;;;;;;;0.70;0.70;;;;;;;8.76;100.00;96609.91;4983053;28;20050;-64
2024/02/26 01:50:58;;;;;;;0.68;0.68;;;;;;;8.87;100.00;96630.22;4983170;28;20081;-64
2024/02/26 01:53:25;;;;;;;0.70;0.70;;;;;;;8.81;100.00;96621.47;4983291;28;20046;-52
2024/02/26 01:55:52;;;;;;;0.77;0.77;;;;;;;8.83;100.00;96626.63;4983268;28;20506;-53
2024/02/26 01:58:19;;;;;;;0.70;0.70;;;;;;;8.80;100.00;96608.03;4983421;28;20050;-63
2024/02/26 02:00:46;;;;;;;0.70;0.70;;;;;;;8.85;100.00;96621.53;4982879;28;20050;-64
2024/02/26 02:03:13;;;;;;;0.70;0.70;;;;;;;8.86;100.00;96620.34;4982992;28;20147;-64
2024/02/26 02:05:42;;;;;;;0.70;0.70;;;;;;;8.81;100.00;96626.19;4983822;28;20058;-52
2024/02/26 02:08:11;;;;;;;0.70;0.70;;;;;;;8.71;100.00;96626.81;4983544;28;20061;-52
2024/02/26 02:10:38;;;;;;;0.70;0.70;;;;;;;8.54;100.00;96616.25;4981830;28;20050;-53
2024/02/26 02:13:05;;;;;;;0.70;0.70;;;;;;;8.73;100.00;96630.00;4973041;28;20065;-63
2024/02/26 02:15:32;;;;;;;0.70;0.70;;;;;;;8.76;100.00;96629.25;4981351;28;20054;-55
2024/02/26 02:17:59;;;;;;;0.60;0.60;;;;;;;8.38;100.00;96565.88;4983139;28;20437;-63
2024/02/26 02:20:35;;;;;;;0.70;0.70;;;;;;;8.73;100.00;96618.94;4982729;28;20050;-64
2024/02/26 02:23:03;;;;;;;0.70;0.70;;;;;;;8.43;100.00;96560.06;4983246;28;20092;-52
2024/02/26 02:25:29;;;;;;;0.70;0.70;;;;;;;8.77;100.00;96608.78;4982759;28;20431;-62
2024/02/26 02:27:57;;;;;;;0.70;0.70;;;;;;;8.81;100.00;96698.78;4982879;28;20073;-53
2024/02/26 02:30:29;;;;;;;0.70;0.70;;;;;;;8.83;100.00;96612.81;4983018;28;20889;-53
2024/02/26 02:33:00;;;;;;;0.70;0.70;;;;;;;8.87;100.00;96608.13;4983401;28;20073;-53
2024/02/26 02:35:27;;;;;;;0.60;0.60;;;;;;;8.86;100.00;96603.78;4983258;28;20054;-53
2024/02/26 02:37:57;;;;;;;0.70;0.70;;;;;;;8.67;100.00;96581.78;4982886;28;20065;-53
2024/02/26 02:40:24;;;;;;;0.70;0.70;;;;;;;8.75;100.00;96595.34;4982386;28;20053;-64
2024/02/26 02:42:51;;;;;;;0.73;0.73;;;;;;;8.59;100.00;96571.78;4981301;28;20046;-64
2024/02/26 02:45:17;;;;;;;0.70;0.70;;;;;;;8.07;100.00;96510.91;4982762;28;20058;-54
2024/02/26 02:47:44;;;;;;;0.70;0.70;;;;;;;8.42;100.00;96577.78;4983223;28;20062;-61
2024/02/26 02:50:11;;;;;;;0.70;0.70;;;;;;;8.49;100.00;96602.75;4982209;28;20116;-53
2024/02/26 02:52:38;;;;;;;0.70;0.70;;;;;;;8.34;100.00;96589.88;4982476;28;20050;-53
2024/02/26 02:55:05;;;;;;;0.70;0.70;;;;;;;8.31;100.00;96593.38;4982522;28;20047;-63
2024/02/26 02:57:33;;;;;;;0.70;0.70;;;;;;;8.27;100.00;96601.56;4983009;28;20056;-63
2024/02/26 02:59:59;;;;;;;0.70;0.70;;;;;;;8.39;100.00;96619.91;4981472;28;20428;-53
2024/02/26 03:02:26;;;;;;;0.70;0.70;;;;;;;8.36;100.00;96631.69;4963473;28;20061;-53
2024/02/26 03:04:53;;;;;;;0.60;0.60;;;;;;;8.34;100.00;96622.97;4962962;28;20055;-56
2024/02/26 03:07:20;;;;;;;0.60;0.60;;;;;;;8.22;100.00;96631.41;4963700;28;20047;-53
2024/02/26 03:09:47;;;;;;;0.75;0.75;;;;;;;8.26;100.00;96627.56;4962042;28;20465;-56
2024/02/26 03:12:14;;;;;;;0.70;0.70;;;;;;;8.33;100.00;96629.66;4963279;28;20061;-53
2024/02/26 03:14:41;;;;;;;0.70;0.70;;;;;;;8.35;100.00;96630.09;4963193;28;20090;-54
2024/02/26 03:17:08;;;;;;;0.70;0.70;;;;;;;8.25;100.00;96598.38;4966196;28;20054;-52
2024/02/26 03:19:34;;;;;;;0.70;0.70;;;;;;;8.37;100.00;96616.72;4965063;28;20061;-62
2024/02/26 03:22:02;;;;;;;0.80;0.80;;;;;;;8.46;100.00;96614.50;4966379;28;20502;-53
2024/02/26 03:24:28;;;;;;;0.70;0.70;;;;;;;8.23;100.00;96586.94;4966413;28;20051;-53
2024/02/26 03:26:55;;;;;;;0.60;0.60;;;;;;;7.97;100.00;96519.78;4966297;28;20505;-55
2024/02/26 03:29:22;;;;;;;0.63;0.63;;;;;;;8.37;100.00;96589.94;4966148;28;20090;-55
2024/02/26 03:31:49;;;;;;;0.73;0.73;;;;;;;8.31;100.00;96596.13;4966446;28;20059;-62
2024/02/26 03:34:17;;;;;;;0.60;0.60;;;;;;;8.36;100.00;96604.09;4964880;28;20046;-53
2024/02/26 03:36:44;;;;;;;0.70;0.70;;;;;;;8.46;100.00;96620.84;4966365;28;20113;-53
2024/02/26 03:39:11;;;;;;;0.70;0.70;;;;;;;7.79;100.00;96502.13;4966839;28;20620;-63
2024/02/26 03:41:37;;;;;;;0.70;0.70;;;;;;;8.36;100.00;96618.69;4978769;28;20536;-53
2024/02/26 03:44:04;;;;;;;0.60;0.60;;;;;;;8.10;100.00;96595.69;4985715;28;20055;-63
2024/02/26 03:46:31;;;;;;;0.70;0.70;;;;;;;8.19;100.00;96610.84;4985654;28;20109;-56
2024/02/26 03:48:58;;;;;;;0.60;0.60;;;;;;;8.12;100.00;96605.22;4985889;28;20057;-63
2024/02/26 03:51:25;;;;;;;0.70;0.70;;;;;;;8.19;100.00;96601.78;4983801;28;20505;-53
2024/02/26 03:53:52;;;;;;;0.68;0.68;;;;;;;7.84;100.00;96545.94;4985702;28;20065;-53
2024/02/26 03:56:18;;;;;;;0.68;0.68;;;;;;;8.15;100.00;96601.72;4985307;28;20143;-55
2024/02/26 03:58:45;;;;;;;0.60;0.60;;;;;;;8.24;100.00;96598.75;4985279;28;20497;-63
2024/02/26 04:01:12;;;;;;;0.70;0.70;;;;;;;8.27;100.00;96600.75;4985016;28;20054;-53
2024/02/26 04:03:39;;;;;;;0.70;0.70;;;;;;;8.35;100.00;96608.00;4985403;28;20046;-62
2024/02/26 04:06:09;;;;;;;0.70;0.70;;;;;;;8.41;100.00;96601.03;4985012;28;20061;-63
2024/02/26 04:08:37;;;;;;;0.70;0.70;;;;;;;8.49;100.00;96602.75;4985321;28;20156;-54
2024/02/26 04:11:07;;;;;;;0.60;0.60;;;;;;;8.06;100.00;96534.16;4984744;28;20055;-62
2024/02/26 04:13:34;;;;;;;0.77;0.77;;;;;;;8.48;100.00;96606.69;4985102;28;20050;-63
2024/02/26 04:16:02;;;;;;;0.60;0.60;;;;;;;8.45;100.00;96612.94;4964564;28;20058;-62
2024/02/26 04:18:29;;;;;;;0.60;0.60;;;;;;;8.35;100.00;96608.81;4979892;28;20046;-53
2024/02/26 04:20:56;;;;;;;0.70;0.70;;;;;;;8.37;100.00;96600.16;4986984;28;20058;-62
2024/02/26 04:23:24;;;;;;;0.70;0.70;;;;;;;8.37;100.00;96605.69;4984965;28;20496;-53
2024/02/26 04:25:53;;;;;;;0.70;0.70;;;;;;;7.44;100.00;96472.75;4984490;28;20046;-55
2024/02/26 04:28:26;;;;;;;0.70;0.70;;;;;;;8.29;100.00;96609.47;4985183;28;20054;-63
2024/02/26 04:30:52;;;;;;;0.60;0.60;;;;;;;8.25;100.00;96608.63;4984644;28;20051;-53
2024/02/26 04:33:19;;;;;;;0.73;0.73;;;;;;;8.21;100.00;96614.03;4984528;28;20050;-55
2024/02/26 04:35:46;;;;;;;0.68;0.68;;;;;;;8.31;100.00;96607.16;4984120;28;20051;-63
2024/02/26 04:38:13;;;;;;;0.70;0.70;;;;;;;8.40;100.00;96611.28;4983999;28;20116;-63
2024/02/26 04:40:40;;;;;;;0.68;0.68;;;;;;;8.40;100.00;96593.91;4984346;28;20046;-63
2024/02/26 04:43:06;;;;;;;0.70;0.70;;;;;;;8.29;100.00;96565.34;4984712;28;20503;-55
2024/02/26 04:45:33;;;;;;;0.80;0.80;;;;;;;8.60;100.00;96606.50;4984375;28;20054;-62
2024/02/26 04:48:00;;;;;;;0.70;0.70;;;;;;;8.67;100.00;96612.13;4984923;28;20050;-54
2024/02/26 04:50:27;;;;;;;0.70;0.70;;;;;;;8.59;100.00;96614.00;4983313;28;20050;-63
2024/02/26 04:52:54;;;;;;;0.70;0.70;;;;;;;8.26;100.00;96560.56;4982868;28;20056;-63
2024/02/26 04:55:21;;;;;;;0.60;0.60;;;;;;;8.12;100.00;96565.78;4982711;28;20410;-62
2024/02/26 04:57:48;;;;;;;0.70;0.70;;;;;;;8.33;100.00;96610.34;4982498;28;20502;-53
2024/02/26 05:00:15;;;;;;;0.77;0.77;;;;;;;8.34;100.00;96683.69;4984074;28;20062;-62
2024/02/26 05:02:42;;;;;;;0.70;0.70;;;;;;;8.33;100.00;96600.09;4983849;28;20062;-62
2024/02/26 05:05:09;;;;;;;0.70;0.70;;;;;;;8.40;100.00;96624.28;4982278;28;20058;-53
2024/02/26 05:07:43;;;;;;;0.70;0.70;;;;;;;8.34;100.00;96628.50;4983880;28;20062;-62
2024/02/26 05:10:10;;;;;;;0.70;0.70;;;;;;;8.29;100.00;96620.50;4983914;28;20057;-62
2024/02/26 05:12:37;;;;;;;0.70;0.70;;;;;;;8.42;100.00;96625.50;4983969;28;20233;-62
2024/02/26 05:15:04;;;;;;;0.63;0.63;;;;;;;7.96;100.00;96556.81;4984251;28;20054;-53
2024/02/26 05:17:31;;;;;;;0.70;0.70;;;;;;;8.26;100.00;96611.03;4982670;28;20054;-62
2024/02/26 05:19:58;;;;;;;0.75;0.75;;;;;;;8.39;100.00;96614.41;4983425;28;20054;-54
2024/02/26 05:22:25;;;;;;;0.60;0.60;;;;;;;8.24;100.00;96615.28;4983680;28;20290;-53
2024/02/26 05:24:52;;;;;;;0.70;0.70;;;;;;;8.18;100.00;96586.38;4983610;28;20586;-53
2024/02/26 05:27:19;;;;;;;0.60;0.60;;;;;;;7.98;100.00;96552.53;4983651;28;20069;-62
2024/02/26 05:29:45;;;;;;;0.75;0.75;;;;;;;8.44;100.00;96622.38;4982153;28;20136;-53
2024/02/26 05:32:12;;;;;;;0.70;0.70;;;;;;;8.54;100.00;96638.31;4981717;28;20159;-53
2024/02/26 05:34:41;;;;;;;0.65;0.65;;;;;;;8.15;100.00;96581.59;4983490;28;20429;-62
2024/02/26 05:37:08;;;;;;;0.70;0.70;;;;;;;8.24;100.00;96584.94;4982424;28;20061;-53
2024/02/26 05:39:34;;;;;;;0.63;0.63;;;;;;;8.12;100.00;96560.25;4982907;28;20054;-53
2024/02/26 05:42:01;;;;;;;0.80;0.80;;;;;;;8.68;100.00;96644.09;4982872;28;20495;-62
2024/02/26 05:44:28;;;;;;;0.70;0.70;;;;;;;8.78;100.00;96643.50;4982892;28;20284;-62
2024/02/26 05:46:55;;;;;;;0.70;0.70;;;;;;;8.82;100.00;96650.66;4983104;28;20712;-53
2024/02/26 05:49:25;;;;;;;0.68;0.68;;;;;;;8.85;100.00;96647.16;4981466;28;20541;-54
2024/02/26 05:51:52;;;;;;;0.80;0.80;;;;;;;8.84;100.00;96650.28;4983615;28;20147;-53
2024/02/26 05:54:18;;;;;;;0.60;0.60;;;;;;;8.94;100.00;96646.94;4983197;28;20061;-53
2024/02/26 05:56:45;;;;;;;0.75;0.75;;;;;;;8.98;100.00;96656.06;4981974;28;20079;-54
2024/02/26 05:59:12;;;;;;;0.70;0.70;;;;;;;9.10;100.00;96651.13;4982344;28;20089;-63
2024/02/26 06:01:39;;;;;;;0.80;0.80;;;;;;;9.16;100.00;96654.41;4982049;28;20053;-54
2024/02/26 06:04:06;;;;;;;0.70;0.70;;;;;;;9.02;100.00;96632.06;4981925;28;20054;-62
2024/02/26 06:06:32;;;;;;;0.80;0.80;;;;;;;8.94;100.00;96611.03;4981894;28;20089;-62
2024/02/26 06:08:59;;;;;;;0.70;0.70;;;;;;;9.25;100.00;96657.69;4981674;28;20050;-62
2024/02/26 06:11:27;;;;;;;0.70;0.70;;;;;;;9.13;100.00;96622.78;4982683;28;20050;-53
2024/02/26 06:13:54;;;;;;;0.70;0.70;;;;;;;9.58;100.00;96659.78;4983343;28;20073;-53
2024/02/26 06:16:20;;;;;;;0.80;0.80;;;;;;;9.73;100.00;96662.38;4983250;28;20046;-62
2024/02/26 06:18:47;;;;;;;0.70;0.70;;;;;;;9.76;100.00;96669.91;4983593;28;20133;-62
2024/02/26 06:21:14;;;;;;;0.80;0.80;;;;;;;9.52;100.00;96642.72;4981744;28;21063;-62
2024/02/26 06:23:41;;;;;;;0.70;0.70;;;;;;;9.84;100.00;96656.97;4981636;28;20117;-53
2024/02/26 06:26:08;;;;;;;0.80;0.80;;;;;;;10.00;100.00;96671.44;4982702;28;20054;-63
2024/02/26 06:28:35;;;;;;;0.70;0.70;;;;;;;10.11;99.75;96677.94;4982861;28;20060;-56
2024/02/26 06:31:02;;;;;;;0.75;0.75;;;;;;;9.59;99.53;96579.22;4981481;28;20469;-63
2024/02/26 06:33:29;;;;;;;0.80;0.80;;;;;;;10.37;98.81;96681.41;4982636;28;20050;-55
2024/02/26 06:35:56;;;;;;;0.80;0.80;;;;;;;10.25;97.23;96645.69;4982858;28;20090;-64
2024/02/26 06:38:23;;;;;;;0.75;0.75;;;;;;;10.50;97.83;96680.00;4982640;28;20074;-63
2024/02/26 06:40:50;;;;;;;0.80;0.80;;;;;;;10.64;98.20;96677.38;4982491;28;20050;-64
2024/02/26 06:43:16;;;;;;;0.82;0.82;;;;;;;10.80;97.29;96687.41;4981650;28;20576;-60
2024/02/26 06:45:43;;;;;;;0.80;0.80;;;;;;;10.93;97.42;96680.41;4978743;28;20322;-54
2024/02/26 06:48:10;;;;;;;0.90;0.90;;;;;;;11.01;95.64;96662.69;4970025;28;20146;-62
2024/02/26 06:50:37;;;;;;;0.90;0.90;;;;;;;11.21;94.36;96689.00;4984916;28;20060;-58
2024/02/26 06:53:04;;;;;;;0.90;0.90;;;;;;;11.28;93.88;96669.66;4986247;28;20073;-60
2024/02/26 06:55:31;;;;;;;0.80;0.80;;;;;;;11.34;93.41;96663.38;4985687;28;20046;-59
2024/02/26 06:59:13;;;;;;;0.90;0.90;;;;;;;11.41;92.69;96651.53;5033433;28;20443;-56
2024/02/26 07:01:43;;;;;;;0.88;0.88;;;;;;;11.53;90.68;96681.72;5029046;28;20046;-69
2024/02/26 07:04:10;;;;;;;0.90;0.90;;;;;;;11.60;90.46;96671.47;5038422;28;20061;-62
2024/02/26 07:06:37;;;;;;;0.90;0.90;;;;;;;11.68;90.08;96672.38;5036186;28;20060;-58
2024/02/26 07:09:04;;;;;;;0.80;0.80;;;;;;;11.81;89.80;96693.06;5039635;28;20098;-56
2024/02/26 07:11:31;;;;;;;0.90;0.90;;;;;;;11.88;89.86;96687.56;5037690;28;20596;-62
2024/02/26 07:13:58;;;;;;;0.90;0.90;;;;;;;12.09;90.47;96680.13;5039619;28;20315;-56
2024/02/26 07:16:25;;;;;;;0.90;0.90;;;;;;;11.84;89.74;96656.19;5038742;28;20053;-58
2024/02/26 07:18:51;;;;;;;1.00;1.00;;;;;;;11.99;89.37;96650.38;5039044;28;20524;-56
2024/02/26 07:21:18;;;;;;;1.00;1.00;;;;;;;12.27;89.30;96688.56;5044080;28;20110;-56
2024/02/26 07:23:45;;;;;;;1.10;1.10;;;;;;;12.34;89.05;96694.16;5051008;28;20045;-68
2024/02/26 07:26:12;;;;;;;0.90;0.90;;;;;;;12.31;88.91;96636.63;5038804;28;20055;-61
2024/02/26 07:28:39;;;;;;;0.90;0.90;;;;;;;12.14;87.57;96599.25;5037618;28;20057;-68
2024/02/26 07:31:05;;;;;;;1.05;1.05;;;;;;;12.82;88.10;96678.06;5036458;28;20049;-56
2024/02/26 07:33:32;;;;;;;1.00;1.00;;;;;;;12.97;86.02;96677.69;5037313;28;20053;-65
2024/02/26 07:35:59;;;;;;;1.00;1.00;;;;;;;12.94;86.62;96678.47;5038194;28;20773;-65
2024/02/26 07:38:26;;;;;;;1.10;1.10;;;;;;;12.96;86.94;96681.63;5038171;28;20546;-57
2024/02/26 07:41:08;;;;;;;1.00;1.00;;;;;;;12.70;86.62;96633.94;5039835;28;20151;-68
2024/02/26 07:43:35;;;;;;;0.95;0.95;;;;;;;13.12;85.42;96684.88;5036978;28;20044;-57
2024/02/26 07:46:02;;;;;;;1.00;1.00;;;;;;;13.11;85.99;96683.28;5038149;28;20465;-59
2024/02/26 07:48:28;;;;;;;0.95;0.95;;;;;;;13.25;86.09;96679.72;5038285;28;20048;-59
2024/02/26 07:50:56;;;;;;;1.10;1.10;;;;;;;13.35;86.16;96676.16;5036951;28;20787;-65
2024/02/26 07:53:22;;;;;;;1.10;1.10;;;;;;;13.51;85.39;96679.34;5038944;28;20057;-64
2024/02/26 07:55:49;;;;;;;1.00;1.00;;;;;;;13.64;84.45;96678.53;5038117;28;20053;-65
2024/02/26 07:58:16;;;;;;;1.10;1.10;;;;;;;13.67;84.25;96672.16;5038020;28;20563;-59
2024/02/26 08:00:43;;;;;;;1.17;1.17;;;;;;;13.38;83.80;96592.69;5037918;28;20309;-64
2024/02/26 08:03:10;;;;;;;1.20;1.20;;;;;;;13.30;83.49;96545.81;5038364;28;20049;-56
2024/02/26 08:05:39;;;;;;;1.23;1.23;;;;;;;14.26;82.05;96675.22;5038603;28;20136;-74
2024/02/26 08:08:07;;;;;;;1.20;1.20;;;;;;;14.27;80.17;96671.28;5038365;28;20136;-65
2024/02/26 08:10:34;;;;;;;1.20;1.20;;;;;;;14.10;80.83;96638.66;5027664;28;20049;-59
2024/02/26 08:13:05;;;;;;;1.20;1.20;;;;;;;14.01;81.25;96611.22;5025093;28;20049;-65
2024/02/26 08:15:34;;;;;;;1.20;1.20;;;;;;;14.62;80.68;96662.75;5024549;28;20835;-69
2024/02/26 08:18:03;;;;;;;1.30;1.30;;;;;;;14.14;80.69;96576.19;5024177;28;20049;-64
2024/02/26 08:20:31;;;;;;;1.20;1.20;;;;;;;14.76;80.04;96671.06;5024497;28;20057;-57
2024/02/26 08:22:58;;;;;;;1.30;1.30;;;;;;;14.75;79.47;96658.28;5024674;28;20052;-79
2024/02/26 08:25:25;;;;;;;1.30;1.30;;;;;;;14.90;78.95;96670.97;5022936;28;20091;-60
2024/02/26 08:27:52;;;;;;;1.50;1.50;;;;;;;14.94;79.53;96678.13;5024053;28;20049;-58
2024/02/26 08:30:19;;;;;;;1.48;1.48;;;;;;;14.87;79.75;96671.78;5024165;28;20053;-60
2024/02/26 08:32:47;;;;;;;1.30;1.30;;;;;;;14.85;79.07;96663.03;5022077;28;20156;-67
2024/02/26 08:35:18;;;;;;;1.30;1.30;;;;;;;14.91;80.05;96655.81;5020399;28;20500;-57
2024/02/26 08:37:46;;;;;;;1.50;1.50;;;;;;;15.03;79.03;96663.72;5025950;28;20049;-67
2024/02/26 08:40:14;;;;;;;1.35;1.35;;;;;;;14.98;79.10;96641.84;5043027;28;20048;-58
2024/02/26 08:42:40;;;;;;;1.40;1.40;;;;;;;15.30;79.17;96650.75;5028209;28;20053;-72
2024/02/26 08:45:08;;;;;;;1.50;1.50;;;;;;;15.48;79.64;96662.63;5023639;28;20045;-56
2024/02/26 08:47:35;;;;;;;1.33;1.33;;;;;;;15.64;80.01;96660.09;5024454;28;20068;-56
2024/02/26 08:50:03;;;;;;;1.50;1.50;;;;;;;15.62;79.56;96656.09;5024137;28;20669;-59
2024/02/26 08:52:30;;;;;;;1.60;1.60;;;;;;;15.48;79.70;96606.78;5019805;28;20063;-58
2024/02/26 08:54:57;;;;;;;1.50;1.50;;;;;;;15.84;79.49;96640.75;5009062;28;20057;-76
2024/02/26 08:57:26;;;;;;;1.63;1.63;;;;;;;16.07;78.85;96643.69;5015292;28;20057;-58
2024/02/26 08:59:54;;;;;;;1.48;1.48;;;;;;;15.97;78.04;96650.97;5024631;28;20057;-57
2024/02/26 09:02:20;;;;;;;1.50;1.50;;;;;;;16.09;78.31;96641.28;5024101;28;20037;-71
2024/02/26 09:04:47;;;;;;;1.20;1.20;;;;;;;15.99;78.89;96643.00;5021846;28;20125;-70
2024/02/26 09:07:14;;;;;;;1.50;1.50;;;;;;;16.21;78.68;96633.16;5023573;28;20646;-69
2024/02/26 09:09:41;;;;;;;1.48;1.48;;;;;;;16.21;76.87;96635.97;5023330;28;20049;-63
2024/02/26 09:12:08;;;;;;;1.52;1.52;;;;;;;15.47;76.82;96562.53;5023370;28;20050;-59
2024/02/26 09:14:35;;;;;;;1.60;1.60;;;;;;;16.14;76.42;96633.22;5022948;28;20663;-58
2024/02/26 09:17:02;;;;;;;1.25;1.25;;;;;;;14.43;72.50;96362.28;5023574;28;20064;-57
2024/02/26 09:19:29;;;;;;;1.40;1.40;;;;;;;16.21;74.36;96638.75;5023129;28;20556;-55
2024/02/26 09:21:57;;;;;;;1.50;1.50;;;;;;;16.15;74.24;96618.06;5021938;28;20060;-59
2024/02/26 09:24:25;;;;;;;1.50;1.50;;;;;;;16.00;74.42;96627.00;5024678;28;20061;-59
2024/02/26 09:26:52;;;;;;;1.50;1.50;;;;;;;16.22;76.05;96645.91;5029577;28;20053;-56
2024/02/26 09:29:19;;;;;;;1.40;1.40;;;;;;;16.40;72.96;96640.91;5023741;28;20061;-57
2024/02/26 09:31:47;;;;;;;1.50;1.50;;;;;;;16.41;71.31;96639.69;5022679;28;20041;-63
2024/02/26 09:34:14;;;;;;;1.40;1.40;;;;;;;16.56;71.74;96638.34;5021602;28;20129;-57
2024/02/26 09:36:41;;;;;;;1.58;1.58;;;;;;;16.58;72.60;96647.09;5022635;28;20049;-69
2024/02/26 09:39:11;;;;;;;1.50;1.50;;;;;;;16.63;72.68;96632.66;5021145;28;20053;-59
2024/02/26 09:41:39;;;;;;;1.42;1.42;;;;;;;16.80;72.80;96630.03;5022970;28;20630;-64
2024/02/26 09:44:07;;;;;;;1.67;1.67;;;;;;;17.07;71.68;96633.66;5022227;28;20087;-58
2024/02/26 09:46:33;;;;;;;1.50;1.50;;;;;;;17.39;69.37;96633.94;5023099;28;20053;-66
2024/02/26 09:49:00;;;;;;;1.80;1.80;;;;;;;17.45;69.01;96598.69;5023640;28;20053;-57
2024/02/26 09:51:28;;;;;;;1.40;1.40;;;;;;;17.71;67.91;96581.00;5023022;28;20064;-65
2024/02/26 09:53:58;;;;;;;1.83;1.83;;;;;;;18.46;66.97;96635.25;5022891;28;20053;-58
2024/02/26 09:56:26;;;;;;;1.80;1.80;;;;;;;18.58;61.55;96586.09;5021827;28;20132;-59
2024/02/26 09:58:55;;;;;;;1.77;1.77;;;;;;;18.97;60.51;96603.66;5019323;28;20400;-58
2024/02/26 10:01:24;;;;;;;1.80;1.80;;;;;;;19.43;55.69;96625.84;5022665;28;20107;-58
2024/02/26 10:03:56;;;;;;;1.90;1.90;;;;;;;19.50;54.50;96586.34;5022426;28;20336;-67
2024/02/26 10:06:26;;;;;;;1.70;1.70;;;;;;;19.75;54.92;96618.63;5023064;28;20086;-55
2024/02/26 10:08:54;;;;;;;1.92;1.92;;;;;;;19.82;49.60;96624.09;5019215;28;20046;-57
2024/02/26 10:11:23;;;;;;;1.65;1.65;;;;;;;18.91;49.73;96605.41;5015576;28;20144;-57
2024/02/26 10:13:49;;;;;;;1.83;1.83;;;;;;;17.62;50.99;96598.38;5021909;28;20558;-66
2024/02/26 10:16:17;;;;;;;1.77;1.77;;;;;;;17.93;53.22;96545.75;5021211;28;20139;-65
2024/02/26 10:18:56;;;;;;;1.50;1.50;;;;;;;18.18;49.00;96588.09;5021021;28;20140;-55
2024/02/26 10:21:26;;;;;;;1.88;1.88;;;;;;;17.67;48.73;96566.28;5020895;28;20515;-64
2024/02/26 10:23:54;;;;;;;1.80;1.80;;;;;;;18.02;51.49;96579.59;5020963;28;20053;-67
2024/02/26 10:26:21;;;;;;;1.50;1.50;;;;;;;16.93;53.18;96572.31;5022503;28;20508;-69
2024/02/26 10:28:49;;;;;;;1.67;1.67;;;;;;;17.30;53.37;96574.88;5020571;28;20049;-59
2024/02/26 10:31:21;;;;;;;1.60;1.60;;;;;;;17.24;50.15;96537.41;5023136;28;20408;-66
2024/02/26 10:33:49;;;;;;;1.70;1.70;;;;;;;17.64;52.37;96561.53;5025898;28;20133;-64
2024/02/26 10:36:16;;;;;;;1.55;1.55;;;;;;;15.90;51.36;96215.31;5040795;28;20163;-58
2024/02/26 10:38:43;;;;;;;1.63;1.63;;;;;;;18.50;52.39;96551.78;5038806;28;20172;-58
2024/02/26 10:41:14;;;;;;;1.50;1.50;;;;;;;18.32;52.15;96511.31;5021682;28;20057;-66
2024/02/26 10:43:43;;;;;;;1.55;1.55;;;;;;;18.43;49.21;96532.31;5021180;28;20081;-71
2024/02/26 10:46:10;;;;;;;1.58;1.58;;;;;;;18.01;49.13;96541.59;5021774;28;20054;-69
2024/02/26 10:48:37;;;;;;;1.63;1.63;;;;;;;18.17;48.35;96541.66;5021045;28;20463;-58
2024/02/26 10:51:04;;;;;;;1.55;1.55;;;;;;;18.53;48.23;96539.72;5020676;28;20463;-63
2024/02/26 10:53:33;;;;;;;1.85;1.85;;;;;;;19.11;49.09;96530.31;5021859;28;20060;-64
2024/02/26 10:56:05;;;;;;;1.63;1.63;;;;;;;17.73;46.85;96248.00;5021998;28;20057;-58
2024/02/26 10:58:32;;;;;;;1.77;1.77;;;;;;;19.64;44.70;96500.09;5021325;28;20156;-60
2024/02/26 11:00:59;;;;;;;2.10;2.10;;;;;;;19.36;44.84;96449.03;5021336;28;20111;-62
2024/02/26 11:03:31;;;;;;;1.75;1.75;;;;;;;19.86;45.38;96512.31;5020080;28;20053;-58
2024/02/26 11:06:01;;;;;;;2.00;2.00;;;;;;;19.81;44.80;96512.84;5020479;28;20107;-70
2024/02/26 11:08:28;;;;;;;2.00;2.00;;;;;;;19.88;45.14;96501.44;5034966;28;20049;-64
2024/02/26 11:10:57;;;;;;;2.17;2.17;;;;;;;20.00;45.77;96492.25;5041864;28;20075;-66
2024/02/26 11:13:29;;;;;;;1.88;1.88;;;;;;;20.21;45.78;96488.84;5041741;28;20053;-60
2024/02/26 11:15:58;;;;;;;2.10;2.10;;;;;;;19.99;42.98;96437.25;4997409;28;20131;-60
2024/02/26 11:18:27;;;;;;;1.83;1.83;;;;;;;20.29;43.00;96473.34;5021208;28;20057;-58
2024/02/26 11:20:57;;;;;;;1.80;1.80;;;;;;;20.16;43.36;96470.50;5021274;28;20121;-64
2024/02/26 11:23:24;;;;;;;1.98;1.98;;;;;;;19.93;43.98;96467.16;5021474;28;20057;-62
2024/02/26 11:25:54;;;;;;;1.92;1.92;;;;;;;20.15;43.49;96485.81;5021349;28;20050;-71
2024/02/26 11:28:23;;;;;;;1.98;1.98;;;;;;;20.12;42.78;96472.59;5011575;28;20061;-68
2024/02/26 11:30:51;;;;;;;2.10;2.10;;;;;;;20.23;43.03;96486.38;5005486;28;20061;-58
2024/02/26 11:33:20;;;;;;;2.10;2.10;;;;;;;20.35;43.25;96483.59;5019802;28;20848;-66
2024/02/26 11:35:47;;;;;;;2.10;2.10;;;;;;;20.50;43.35;96490.34;5019219;28;20068;-57